Time;durP1;ratioP1;P1;durP2;ratioP2;P2;SDS_P1;SDS_P2;PMS_P1;PMS_P2;Temp;Humidity;BMP_temperature;BMP_pressure;BME280_temperature;BME280_humidity;BME280_pressure;Samples;Min_cycle;Max_cycle;Signal;HPM_P1;HPM_P2
2022/10/04 00:01:59;;;;;;;;;;;;;;;-142.75;100.00;77706.25;5032259;28;20410;-68
2022/10/04 00:04:27;;;;;;;;;;;;;;;-142.75;100.00;77712.16;5014647;28;19916;-67
2022/10/04 00:06:56;;;;;;;;;;;;;;;-142.75;100.00;77723.97;5032043;28;20338;-67
2022/10/04 00:09:22;;;;;;;;;;;;;;;-142.75;100.00;77727.94;5032198;28;19966;-67
2022/10/04 00:11:49;;;;;;;;;;;;;;;-142.75;100.00;77735.81;5032055;28;20391;-67
2022/10/04 00:14:18;;;;;;;;;;;;;;;-142.75;100.00;77739.75;5032196;28;19920;-68
2022/10/04 00:16:43;;;;;;;;;;;;;;;-142.75;100.00;77743.69;5031919;28;19936;-68
2022/10/04 00:19:14;;;;;;;;;;;;;;;-142.75;100.00;77735.81;5032226;28;20371;-68
2022/10/04 00:21:52;;;;;;;;;;;;;;;-142.75;100.00;77731.88;5032102;28;19914;-68
2022/10/04 00:24:25;;;;;;;;;;;;;;;-142.75;100.00;77727.94;5032159;28;20511;-68
2022/10/04 00:26:50;;;;;;;;;;;;;;;-142.75;100.00;77723.97;5031662;28;19921;-69
2022/10/04 00:29:25;;;;;;;;;;;;;;;-142.75;100.00;77735.81;5032112;28;19914;-67
2022/10/04 00:32:08;;;;;;;;;;;;;;;-142.75;100.00;77737.78;5032023;28;19917;-67
2022/10/04 00:34:33;;;;;;;;;;;;;;;-142.75;100.00;77741.72;5031965;28;19921;-68
2022/10/04 00:36:59;;;;;;;;;;;;;;;-142.75;100.00;77729.88;5031669;28;20011;-68
2022/10/04 00:39:25;;;;;;;;;;;;;;;-142.75;100.00;77722.00;5032080;28;19917;-68
2022/10/04 00:41:56;;;;;;;;;;;;;;;-142.75;100.00;77723.97;5031873;28;19956;-68
2022/10/04 00:44:42;;;;;;;;;;;;;;;-142.75;100.00;77735.81;5014253;28;19913;-68
2022/10/04 00:47:19;;;;;;;;;;;;;;;-142.75;100.00;77745.66;5031023;28;19924;-68
2022/10/04 00:49:45;;;;;;;;;;;;;;;-142.75;100.00;77741.72;5031873;28;19917;-67
2022/10/04 00:52:18;;;;;;;;;;;;;;;-142.75;100.00;77743.69;5014160;28;20357;-67
2022/10/04 00:54:49;;;;;;;;;;;;;;;-142.75;100.00;77745.66;5031846;28;19913;-67
2022/10/04 00:57:33;;;;;;;;;;;;;;;-142.75;100.00;77739.75;5013826;28;19917;-70
2022/10/04 01:00:02;;;;;;;;;;;;;;;-142.75;100.00;77739.75;5014054;28;19944;-68
2022/10/04 01:02:36;;;;;;;;;;;;;;;-142.75;100.00;77743.69;5014101;28;20008;-67
2022/10/04 01:05:03;;;;;;;;;;;;;;;-142.75;100.00;77739.75;5031724;28;19917;-67
2022/10/04 01:07:36;;;;;;;;;;;;;;;-142.75;100.00;77727.94;5033267;28;19955;-68
2022/10/04 01:10:06;;;;;;;;;;;;;;;-142.75;100.00;77727.94;5035344;28;19964;-68
2022/10/04 01:12:35;;;;;;;;;;;;;;;-142.75;100.00;77725.97;5035464;28;19913;-68
2022/10/04 01:15:01;;;;;;;;;;;;;;;-142.75;100.00;77727.94;5035451;28;19956;-67
2022/10/04 01:17:26;;;;;;;;;;;;;;;-142.75;100.00;77733.84;5035036;28;19917;-67
2022/10/04 01:19:52;;;;;;;;;;;;;;;-142.75;100.00;77745.66;5017527;28;19920;-68
2022/10/04 01:22:31;;;;;;;;;;;;;;;-142.75;100.00;77751.56;5035086;28;20000;-68
2022/10/04 01:24:56;;;;;;;;;;;;;;;-142.75;100.00;77755.50;5035023;28;20345;-70
2022/10/04 01:27:42;;;;;;;;;;;;;;;-142.75;100.00;77765.34;5017423;28;19913;-68
2022/10/04 01:30:12;;;;;;;;;;;;;;;-142.75;100.00;77771.25;5035033;28;19913;-68
2022/10/04 01:32:37;;;;;;;;;;;;;;;-142.75;100.00;77769.28;5035039;28;19935;-67
2022/10/04 01:35:03;;;;;;;;;;;;;;;-142.75;100.00;77771.25;5017232;28;20434;-68
2022/10/04 01:37:28;;;;;;;;;;;;;;;-142.75;100.00;77767.31;5034596;28;19913;-68
2022/10/04 01:39:54;;;;;;;;;;;;;;;-142.75;100.00;77751.56;5034761;28;19919;-68
2022/10/04 01:42:23;;;;;;;;;;;;;;;-142.75;100.00;77749.59;5034872;28;19925;-69
2022/10/04 01:44:52;;;;;;;;;;;;;;;-142.75;100.00;77759.44;5017032;28;19913;-68
2022/10/04 01:47:35;;;;;;;;;;;;;;;-142.75;100.00;77755.50;5034443;28;20306;-67
2022/10/04 01:50:04;;;;;;;;;;;;;;;-142.75;100.00;77767.31;5016920;28;20429;-68
2022/10/04 01:52:36;;;;;;;;;;;;;;;-142.75;100.00;77757.47;5034727;28;20015;-68
2022/10/04 01:55:08;;;;;;;;;;;;;;;-142.75;100.00;77765.34;5034597;28;19995;-68
2022/10/04 01:57:36;;;;;;;;;;;;;;;-142.75;100.00;77763.38;5034288;28;19919;-66
2022/10/04 02:00:04;;;;;;;;;;;;;;;-142.75;100.00;77779.13;5034472;28;20016;-68
2022/10/04 02:02:29;;;;;;;;;;;;;;;-142.75;100.00;77769.28;5034481;28;19919;-68
2022/10/04 02:04:56;;;;;;;;;;;;;;;-142.75;100.00;77769.28;5016596;28;20016;-68
2022/10/04 02:07:22;;;;;;;;;;;;;;;-142.75;100.00;77777.16;5034070;28;19913;-70
2022/10/04 02:09:49;;;;;;;;;;;;;;;-142.75;100.00;77767.31;5016376;28;20367;-69
2022/10/04 02:12:15;;;;;;;;;;;;;;;-142.75;100.00;77763.38;5061062;22;19924;-68
2022/10/04 02:14:44;;;;;;;;;;;;;;;-142.75;100.00;77757.47;5053119;28;19956;-68
2022/10/04 02:17:10;;;;;;;;;;;;;;;-142.75;100.00;77765.34;5053864;28;20414;-67
2022/10/04 02:19:39;;;;;;;;;;;;;;;-142.75;100.00;77751.56;5053861;28;20051;-67
2022/10/04 02:22:06;;;;;;;;;;;;;;;-142.75;100.00;77755.50;5053937;28;20382;-69
2022/10/04 02:24:36;;;;;;;;;;;;;;;-142.75;100.00;77753.53;5053939;28;19920;-67
2022/10/04 02:27:01;;;;;;;;;;;;;;;-142.75;100.00;77745.66;5035752;28;20429;-67
2022/10/04 02:29:26;;;;;;;;;;;;;;;-142.75;100.00;77737.78;5053775;28;20020;-67
2022/10/04 02:34:36;;;;;;;;;;;;;;;-142.75;100.00;77749.59;5053880;28;19959;-67
2022/10/04 02:37:03;;;;;;;;;;;;;;;-142.75;100.00;77745.66;5035525;28;19917;-67
2022/10/04 02:39:35;;;;;;;;;;;;;;;-142.75;100.00;77755.50;5035836;28;19919;-67
2022/10/04 02:42:19;;;;;;;;;;;;;;;-142.75;100.00;77755.50;5035705;28;19920;-68
2022/10/04 02:44:50;;;;;;;;;;;;;;;-142.75;100.00;77755.50;5035641;28;19920;-67
2022/10/04 02:47:20;;;;;;;;;;;;;;;-142.75;100.00;77739.75;5053332;28;19942;-67
2022/10/04 02:49:47;;;;;;;;;;;;;;;-142.75;100.00;77747.63;5053519;28;19912;-67
2022/10/04 02:52:19;;;;;;;;;;;;;;;-142.75;100.00;77743.69;5035332;28;20011;-67
2022/10/04 02:54:44;;;;;;;;;;;;;;;-142.75;100.00;77749.59;5053408;28;19913;-67
2022/10/04 02:57:18;;;;;;;;;;;;;;;-142.75;100.00;77751.56;5052947;28;19917;-68
2022/10/04 02:59:43;;;;;;;;;;;;;;;-142.75;100.00;77759.44;5053265;28;20314;-68
2022/10/04 03:02:19;;;;;;;;;;;;;;;-142.75;100.00;77743.69;5035344;28;19913;-67
2022/10/04 03:04:45;;;;;;;;;;;;;;;-142.75;100.00;77731.88;5053153;28;19913;-67
2022/10/04 03:07:10;;;;;;;;;;;;;;;-142.75;100.00;77743.69;5053056;28;20280;-67
2022/10/04 03:09:36;;;;;;;;;;;;;;;-142.75;100.00;77745.66;5035218;28;20379;-67
2022/10/04 03:12:03;;;;;;;;;;;;;;;-142.75;100.00;77739.75;5052887;28;19928;-67
2022/10/04 03:14:28;;;;;;;;;;;;;;;-142.75;100.00;77739.75;5052994;28;20307;-67
2022/10/04 03:16:56;;;;;;;;;;;;;;;-142.75;100.00;77731.88;5052740;28;19912;-67
2022/10/04 03:19:22;;;;;;;;;;;;;;;-142.75;100.00;77723.97;5052821;28;20007;-67
2022/10/04 03:21:48;;;;;;;;;;;;;;;-142.75;100.00;77725.97;5052817;28;19921;-67
2022/10/04 03:24:19;;;;;;;;;;;;;;;-142.75;100.00;77729.88;5034974;28;19956;-67
2022/10/04 03:26:50;;;;;;;;;;;;;;;-142.75;100.00;77727.94;5052474;28;20015;-67
2022/10/04 03:29:16;;;;;;;;;;;;;;;-142.75;100.00;77720.03;5052287;28;19913;-67
2022/10/04 03:31:46;;;;;;;;;;;;;;;-142.75;100.00;77731.88;5052467;28;20015;-67
2022/10/04 03:34:14;;;;;;;;;;;;;;;-142.75;100.00;77723.97;5052690;28;20012;-67
2022/10/04 03:36:39;;;;;;;;;;;;;;;-142.75;100.00;77737.78;5034480;28;19912;-67
2022/10/04 03:39:07;;;;;;;;;;;;;;;-142.75;100.00;77739.75;5052603;28;19916;-67
2022/10/04 03:41:37;;;;;;;;;;;;;;;-142.75;100.00;77737.78;5052495;28;20404;-67
2022/10/04 03:44:02;;;;;;;;;;;;;;;-142.75;100.00;77735.81;5052518;28;19962;-67
2022/10/04 03:46:27;;;;;;;;;;;;;;;-142.75;100.00;77731.88;5052272;28;19921;-67
2022/10/04 03:48:54;;;;;;;;;;;;;;;-142.75;100.00;77727.94;5052310;28;19913;-67
2022/10/04 03:51:20;;;;;;;;;;;;;;;-142.75;100.00;77733.84;5034423;28;19912;-68
2022/10/04 03:53:48;;;;;;;;;;;;;;;-142.75;100.00;77745.66;5052348;28;20055;-67
2022/10/04 03:56:16;;;;;;;;;;;;;;;-142.75;100.00;77747.63;5052193;28;19920;-67
2022/10/04 03:58:42;;;;;;;;;;;;;;;-142.75;100.00;77741.72;5052022;28;19916;-67
2022/10/04 04:01:21;;;;;;;;;;;;;;;-142.75;100.00;77743.69;5052124;28;19986;-67
2022/10/04 04:03:52;;;;;;;;;;;;;;;-142.75;100.00;77767.31;5052287;28;20010;-67
2022/10/04 04:06:18;;;;;;;;;;;;;;;-142.75;100.00;77763.38;5052068;28;19927;-67
2022/10/04 04:08:46;;;;;;;;;;;;;;;-142.75;100.00;77765.34;5051858;28;19913;-67
2022/10/04 04:11:17;;;;;;;;;;;;;;;-142.75;100.00;77773.22;5051959;28;19917;-67
2022/10/04 04:13:49;;;;;;;;;;;;;;;-142.75;100.00;77767.31;5052023;28;19920;-67
2022/10/04 04:16:15;;;;;;;;;;;;;;;-142.75;100.00;77767.31;5052020;28;19913;-67
2022/10/04 04:18:42;;;;;;;;;;;;;;;-142.75;100.00;77765.34;5051853;28;20379;-67
2022/10/04 04:21:07;;;;;;;;;;;;;;;-142.75;100.00;77753.53;5051923;28;20000;-67
2022/10/04 04:23:35;;;;;;;;;;;;;;;-142.75;100.00;77751.56;5051992;28;20359;-67
2022/10/04 04:26:13;;;;;;;;;;;;;;;-142.75;100.00;77757.47;5051843;28;19964;-67
2022/10/04 04:28:40;;;;;;;;;;;;;;;-142.75;100.00;77767.31;5051744;28;19913;-67
2022/10/04 04:31:15;;;;;;;;;;;;;;;-142.75;100.00;77763.38;5051906;28;19958;-67
2022/10/04 04:33:47;;;;;;;;;;;;;;;-142.75;100.00;77761.41;5034115;28;20008;-67
2022/10/04 04:36:13;;;;;;;;;;;;;;;-142.75;100.00;77759.44;5051840;28;19919;-67
2022/10/04 04:39:33;;;;;;;;;;;;;;;-142.75;100.00;77751.56;5051519;28;19913;-67
2022/10/04 04:41:25;;;;;;;;;;;;;;;-142.75;100.00;77743.69;5051675;28;19919;-67
2022/10/04 04:43:50;;;;;;;;;;;;;;;-142.75;100.00;77753.53;5038210;28;20360;-67
2022/10/04 04:46:15;;;;;;;;;;;;;;;-142.75;100.00;77751.56;5055758;28;19916;-67
2022/10/04 04:48:45;;;;;;;;;;;;;;;-142.75;100.00;77747.63;5046444;28;19921;-67
2022/10/04 04:51:18;;;;;;;;;;;;;;;-142.75;100.00;77741.72;5044061;28;20267;-67
2022/10/04 04:53:44;;;;;;;;;;;;;;;-142.75;100.00;77745.66;5039577;28;19920;-67
2022/10/04 04:56:10;;;;;;;;;;;;;;;-142.75;100.00;77755.50;5049994;28;20398;-67
2022/10/04 04:58:37;;;;;;;;;;;;;;;-142.75;100.00;77763.38;5051562;28;19917;-67
2022/10/04 05:01:14;;;;;;;;;;;;;;;-142.75;100.00;77771.25;5055146;28;19917;-67
2022/10/04 05:03:40;;;;;;;;;;;;;;;-142.75;100.00;77775.19;5051238;28;19920;-67
2022/10/04 05:06:23;;;;;;;;;;;;;;;-142.75;100.00;77771.25;5053817;28;19917;-67
2022/10/04 05:08:49;;;;;;;;;;;;;;;-142.75;100.00;77773.22;5049457;28;19916;-67
2022/10/04 05:11:17;;;;;;;;;;;;;;;-142.75;100.00;77769.28;5055261;28;19916;-67
2022/10/04 05:13:46;;;;;;;;;;;;;;;-142.75;100.00;77755.50;5055351;28;20032;-67
2022/10/04 05:16:15;;;;;;;;;;;;;;;-142.75;100.00;77757.47;5055240;28;19917;-67
2022/10/04 05:18:40;;;;;;;;;;;;;;;-142.75;100.00;77773.22;5054970;28;20374;-67
2022/10/04 05:21:23;;;;;;;;;;;;;;;-142.75;100.00;77771.25;5055062;28;19913;-67
2022/10/04 05:23:48;;;;;;;;;;;;;;;-142.75;100.00;77785.03;5055295;28;19912;-67
2022/10/04 05:26:16;;;;;;;;;;;;;;;-142.75;100.00;77785.03;5037067;28;19917;-67
2022/10/04 05:28:42;;;;;;;;;;;;;;;-142.75;100.00;77794.88;5054761;28;19951;-67
2022/10/04 05:31:26;;;;;;;;;;;;;;;-142.75;100.00;77785.03;5054941;28;19913;-67
2022/10/04 05:33:54;;;;;;;;;;;;;;;-142.75;100.00;77788.97;5054986;28;19917;-67
2022/10/04 05:36:37;;;;;;;;;;;;;;;-142.75;100.00;77802.75;5052277;28;19921;-67
2022/10/04 05:39:04;;;;;;;;;;;;;;;-142.75;100.00;77810.63;5049501;28;19929;-67
2022/10/04 05:41:33;;;;;;;;;;;;;;;-142.75;100.00;77802.75;5034774;28;19940;-66
2022/10/04 05:43:59;;;;;;;;;;;;;;;-142.75;100.00;77818.50;5034837;28;19943;-67
2022/10/04 05:46:26;;;;;;;;;;;;;;;-142.75;100.00;77816.53;5017168;28;20294;-67
2022/10/04 05:48:53;;;;;;;;;;;;;;;-142.75;100.00;77824.41;5035050;28;20406;-67
2022/10/04 05:51:27;;;;;;;;;;;;;;;-142.75;100.00;77826.38;5053568;28;20050;-67
2022/10/04 05:53:56;;;;;;;;;;;;;;;-142.75;100.00;77824.41;5051836;28;19916;-67
2022/10/04 05:56:36;;;;;;;;;;;;;;;-142.75;100.00;77826.38;5060770;28;19913;-67
2022/10/04 05:59:20;;;;;;;;;;;;;;;-142.75;100.00;77836.22;5048950;28;19971;-67
2022/10/04 06:01:50;;;;;;;;;;;;;;;-142.75;100.00;77820.47;5047559;28;19923;-67
2022/10/04 06:04:34;;;;;;;;;;;;;;;-142.75;100.00;77820.47;5053805;28;20529;-67
2022/10/04 06:07:03;;;;;;;;;;;;;;;-142.75;100.00;77836.22;5053488;28;20012;-67
2022/10/04 06:09:34;;;;;;;;;;;;;;;-142.75;100.00;77834.25;5059449;28;20360;-67
2022/10/04 06:12:10;;;;;;;;;;;;;;;-142.75;100.00;77838.19;5052895;28;20354;-67
2022/10/04 06:14:38;;;;;;;;;;;;;;;-142.75;100.00;77836.22;5052783;28;20377;-67
2022/10/04 06:17:03;;;;;;;;;;;;;;;-142.75;100.00;77838.19;5052901;28;19916;-67
2022/10/04 06:19:32;;;;;;;;;;;;;;;-142.75;100.00;77840.16;5050149;28;19916;-67
2022/10/04 06:21:57;;;;;;;;;;;;;;;-142.75;100.00;77834.25;5041493;28;19996;-68
2022/10/04 06:24:25;;;;;;;;;;;;;;;-142.75;100.00;77838.19;5034510;28;20004;-67
2022/10/04 06:26:59;;;;;;;;;;;;;;;-142.75;100.00;77842.13;5052084;28;19917;-66
2022/10/04 06:29:27;;;;;;;;;;;;;;;-142.75;100.00;77834.25;5053987;28;19913;-67
2022/10/04 06:31:53;;;;;;;;;;;;;;;-142.75;100.00;77840.16;5053745;28;19917;-67
2022/10/04 06:34:37;;;;;;;;;;;;;;;-142.75;100.00;77838.19;5053711;28;19959;-67
2022/10/04 06:37:11;;;;;;;;;;;;;;;-142.75;100.00;77838.19;5053406;28;20310;-67
2022/10/04 06:39:39;;;;;;;;;;;;;;;-142.75;100.00;77816.53;5053640;28;19913;-66
2022/10/04 06:42:04;;;;;;;;;;;;;;;-142.75;100.00;77830.31;5053478;28;19959;-67
2022/10/04 06:44:48;;;;;;;;;;;;;;;-142.75;100.00;77818.50;5044521;28;19958;-67
2022/10/04 06:47:32;;;;;;;;;;;;;;;-142.75;100.00;77806.69;5046702;28;19963;-66
2022/10/04 06:50:13;;;;;;;;;;;;;;;-142.75;100.00;77771.25;5037698;28;20368;-66
2022/10/04 06:52:38;;;;;;;;;;;;;;;-142.75;100.00;77745.66;5044449;28;20294;-67
2022/10/04 06:55:03;;;;;;;;;;;;;;;-142.75;100.00;77733.84;5047442;28;19917;-68
2022/10/04 06:57:37;;;;;;;;;;;;;;;-142.75;100.00;77704.28;5033148;28;19913;-67
2022/10/04 07:00:03;;;;;;;;;;;;;;;-142.75;100.00;77688.53;5033273;28;19913;-66
2022/10/04 07:02:43;;;;;;;;;;;;;;;-142.75;100.00;77664.91;5033201;28;19921;-66
2022/10/04 07:05:14;;;;;;;;;;;;;;;-142.75;100.00;77647.19;5036760;28;19921;-67
2022/10/04 07:07:43;;;;;;;;;;;;;;;-142.75;100.00;77609.78;5052802;28;19920;-67
2022/10/04 07:10:11;;;;;;;;;;;;;;;-142.75;100.00;77605.84;5052595;28;19919;-67
2022/10/04 07:12:39;;;;;;;;;;;;;;;-142.75;100.00;77578.28;5046352;28;19963;-67
2022/10/04 07:15:11;;;;;;;;;;;;;;;-142.75;100.00;77580.25;5033153;28;20003;-67
2022/10/04 07:17:39;;;;;;;;;;;;;;;-142.75;100.00;77531.03;5032739;28;19960;-67
2022/10/04 07:20:06;;;;;;;;;;;;;;;-142.75;100.00;77485.75;5032918;28;19913;-66
2022/10/04 07:22:44;;;;;;;;;;;;;;;-142.75;100.00;77473.94;5032688;28;19914;-67
2022/10/04 07:25:19;;;;;;;;;;;;;;;-142.75;100.00;77452.25;5047541;28;19921;-67
2022/10/04 07:29:19;;;;;;;;;;;;;;;-142.75;100.00;77442.41;5052344;28;19913;-67
2022/10/04 07:30:42;;;;;;;;;;;;;;;-142.75;100.00;77408.94;5046792;28;20361;-67
2022/10/04 07:33:12;;;;;;;;;;;;;;;-142.75;100.00;77401.06;5037535;28;19917;-67
2022/10/04 07:35:42;;;;;;;;;;;;;;;-142.75;100.00;77397.13;5040542;28;20413;-67
2022/10/04 07:38:14;;;;;;;;;;;;;;;-142.75;100.00;77381.38;5041360;28;20303;-68
2022/10/04 07:40:49;;;;;;;;;;;;;;;-142.75;100.00;77326.25;5033016;28;19913;-67
2022/10/04 07:43:25;;;;;;;;;;;;;;;-142.75;100.00;77340.03;5014933;28;19921;-67
2022/10/04 07:45:53;;;;;;;;;;;;;;;-142.75;100.00;77355.78;5032360;28;19970;-67
2022/10/04 07:48:22;;;;;;;;;;;;;;;-142.75;100.00;77342.00;5032404;28;19913;-67
2022/10/04 07:50:56;;;;;;;;;;;;;;;-142.75;100.00;77347.91;5032409;28;20458;-67
2022/10/04 07:53:24;;;;;;;;;;;;;;;-142.75;100.00;77310.50;5032431;28;20483;-67
2022/10/04 07:56:11;;;;;;;;;;;;;;;-142.75;100.00;77294.75;5032387;28;19917;-67
2022/10/04 07:59:05;;;;;;;;;;;;;;;-142.75;100.00;77239.63;5032018;28;20367;-67
2022/10/04 08:01:51;;;;;;;;;;;;;;;-142.75;100.00;77241.59;5032249;28;20394;-67
2022/10/04 08:04:27;;;;;;;;;;;;;;;-142.75;100.00;77271.13;5032119;28;19920;-67
2022/10/04 08:07:02;;;;;;;;;;;;;;;-142.75;100.00;77227.81;5031831;28;19952;-67
2022/10/04 08:09:27;;;;;;;;;;;;;;;-142.75;100.00;77267.19;5032284;28;19967;-67
2022/10/04 08:12:04;;;;;;;;;;;;;;;-142.75;100.00;77227.81;5063177;22;19932;-68
2022/10/04 08:14:30;;;;;;;;;;;;;;;-142.75;100.00;77204.19;5091218;28;19924;-68
2022/10/04 08:16:55;;;;;;;;;;;;;;;-142.75;100.00;77235.69;5090900;28;19935;-69
2022/10/04 08:19:34;;;;;;;;;;;;;;;-142.75;100.00;77206.16;5092206;28;20050;-68
2022/10/04 08:22:24;;;;;;;;;;;;;;;-142.75;100.00;77212.06;5080545;28;20015;-69
2022/10/04 08:24:58;;;;;;;;;;;;;;;-142.75;100.00;77154.97;5042936;28;19917;-68
2022/10/04 08:27:36;;;;;;;;;;;;;;;-142.75;100.00;77074.25;5068321;28;19917;-68
2022/10/04 08:30:02;;;;;;;;;;;;;;;-142.75;100.00;77034.88;5071913;28;19913;-69
2022/10/04 08:32:36;;;;;;;;;;;;;;;-142.75;100.00;77086.06;5071840;28;20421;-68
2022/10/04 08:35:04;;;;;;;;;;;;;;;-142.75;100.00;77038.81;5071990;28;19912;-69
2022/10/04 08:37:39;;;;;;;;;;;;;;;-142.75;100.00;76971.88;5071692;28;19912;-69
2022/10/04 08:40:19;;;;;;;;;;;;;;;-142.75;100.00;76979.75;5071829;28;19917;-69
2022/10/04 08:43:03;;;;;;;;;;;;;;;-142.75;100.00;76954.16;5071402;28;19917;-68
2022/10/04 08:45:47;;;;;;;;;;;;;;;-142.75;100.00;76985.66;5071313;28;19951;-68
2022/10/04 08:48:21;;;;;;;;;;;;;;;-142.75;100.00;77013.22;5069314;28;19912;-69
2022/10/04 08:51:05;;;;;;;;;;;;;;;-142.75;100.00;77005.34;5069135;28;19982;-67
2022/10/04 08:53:39;;;;;;;;;;;;;;;-142.75;100.00;77009.28;5071767;28;19916;-65
2022/10/04 08:56:23;;;;;;;;;;;;;;;-142.75;100.00;76965.97;5070490;28;19939;-66
2022/10/04 08:58:48;;;;;;;;;;;;;;;-142.75;100.00;77007.31;5071526;28;19916;-66
2022/10/04 09:01:32;;;;;;;;;;;;;;;-142.75;100.00;76981.72;5071748;28;19916;-66
2022/10/04 09:04:00;;;;;;;;;;;;;;;-142.75;100.00;76918.72;5071838;28;20271;-67
2022/10/04 09:06:44;;;;;;;;;;;;;;;-142.75;100.00;76877.38;5070405;28;19924;-66
2022/10/04 09:09:21;;;;;;;;;;;;;;;-142.75;100.00;76887.22;5071675;28;19913;-66
2022/10/04 09:11:50;;;;;;;;;;;;;;;-142.75;100.00;76849.81;5071519;28;19916;-67
2022/10/04 09:14:34;;;;;;;;;;;;;;;-142.75;100.00;76881.31;5071487;28;20281;-66
2022/10/04 09:17:02;;;;;;;;;;;;;;;-142.75;100.00;76826.19;5071294;28;19912;-68
2022/10/04 09:19:46;;;;;;;;;;;;;;;-142.75;100.00;76806.50;5071543;28;19913;-70
2022/10/04 09:22:11;;;;;;;;;;;;;;;-142.75;100.00;76849.81;5071496;28;19913;-70
2022/10/04 09:24:56;;;;;;;;;;;;;;;-142.75;100.00;76794.69;5070136;28;19912;-69
2022/10/04 09:27:27;;;;;;;;;;;;;;;-142.75;100.00;76782.91;5069987;28;20306;-70
2022/10/04 09:30:05;;;;;;;;;;;;;;;-142.75;100.00;76743.53;5074982;28;20367;-69
2022/10/04 09:32:51;;;;;;;;;;;;;;;-142.75;100.00;76745.50;5075073;28;19912;-70
2022/10/04 09:35:43;;;;;;;;;;;;;;;-142.75;100.00;76692.34;5073714;28;19912;-70
2022/10/04 09:38:20;;;;;;;;;;;;;;;-142.75;100.00;76680.53;5073327;28;19939;-69
2022/10/04 09:40:45;;;;;;;;;;;;;;;-142.75;100.00;76641.16;5073520;28;19934;-70
2022/10/04 09:43:20;;;;;;;;;;;;;;;-142.75;100.00;76725.81;5073278;28;20445;-70
2022/10/04 09:46:04;;;;;;;;;;;;;;;-142.75;100.00;76688.41;5068242;28;19946;-68
2022/10/04 09:48:29;;;;;;;;;;;;;;;-142.75;100.00;76578.16;5072883;28;19932;-70
2022/10/04 09:51:12;;;;;;;;;;;;;;;-142.75;100.00;76712.03;5074319;28;20419;-69
2022/10/04 09:53:51;;;;;;;;;;;;;;;-142.75;100.00;76692.34;5073192;28;19913;-73
2022/10/04 09:56:35;;;;;;;;;;;;;;;-142.75;100.00;76778.97;5072739;28;20378;-68
2022/10/04 09:59:26;;;;;;;;;;;;;;;-142.75;100.00;76936.44;5074281;28;20382;-69
2022/10/04 10:01:57;;;;;;;;;;;;;;;-142.75;100.00;76969.91;5071218;28;19955;-69
2022/10/04 10:04:41;;;;;;;;;;;;;;;-142.75;100.00;76958.09;5074017;28;19917;-68
2022/10/04 10:07:09;;;;;;;;;;;;;;;-142.75;100.00;76885.25;5074012;28;19978;-69
2022/10/04 10:15:28;;;;;;;;;;;;;;;-142.75;100.00;76593.91;5054248;28;19932;-69
2022/10/04 10:18:19;;;;;;;;;;;;;;;-142.75;100.00;76586.03;5053845;28;19920;-69
2022/10/04 10:20:53;;;;;;;;;;;;;;;-142.75;100.00;76554.53;5051854;28;19974;-69
2022/10/04 10:23:24;;;;;;;;;;;;;;;-142.75;100.00;76515.19;5054027;28;20327;-67
2022/10/04 10:25:57;;;;;;;;;;;;;;;-142.75;100.00;76538.78;5053991;28;19916;-69
2022/10/04 10:28:24;;;;;;;;;;;;;;;-142.75;100.00;76625.41;5053735;28;19956;-68
2022/10/04 10:31:04;;;;;;;;;;;;;;;-142.75;100.00;76601.78;5069369;28;19913;-68
2022/10/04 10:33:48;;;;;;;;;;;;;;;-142.75;100.00;76582.09;5053833;28;20028;-68
2022/10/04 10:36:14;;;;;;;;;;;;;;;-142.75;100.00;76586.03;5053847;28;19952;-68
2022/10/04 10:38:58;;;;;;;;;;;;;;;-142.75;100.00;76511.25;5053421;28;20366;-69
2022/10/04 10:41:25;;;;;;;;;;;;;;;-142.75;100.00;76509.28;5053573;28;19917;-68
2022/10/04 10:43:54;;;;;;;;;;;;;;;-142.75;100.00;76444.31;5053675;28;19917;-68
2022/10/04 10:46:38;;;;;;;;;;;;;;;-142.75;100.00;76456.13;5068888;28;19924;-67
2022/10/04 10:49:09;;;;;;;;;;;;;;;-142.75;100.00;76519.13;5053617;28;19913;-69
2022/10/04 10:51:34;;;;;;;;;;;;;;;-142.75;100.00;76501.41;5053454;28;20374;-69
2022/10/04 10:54:12;;;;;;;;;;;;;;;-142.75;100.00;76446.28;5053431;28;19947;-68
2022/10/04 10:56:56;;;;;;;;;;;;;;;-142.75;100.00;76414.78;5053137;28;19919;-68
2022/10/04 10:59:37;;;;;;;;;;;;;;;-142.75;100.00;76410.84;5053385;28;19958;-68
2022/10/04 11:02:04;;;;;;;;;;;;;;;-142.75;100.00;76420.69;5053247;28;19920;-67
2022/10/04 11:04:33;;;;;;;;;;;;;;;-142.75;100.00;76406.91;5053220;28;19912;-69
2022/10/04 11:07:19;;;;;;;;;;;;;;;-142.75;100.00;76442.34;5052908;28;19917;-69
2022/10/04 11:09:53;;;;;;;;;;;;;;;-142.75;100.00;76550.59;5032225;28;19960;-69
2022/10/04 11:12:25;;;;;;;;;;;;;;;-142.75;100.00;76688.41;5053039;28;19923;-69
2022/10/04 11:14:50;;;;;;;;;;;;;;;-142.75;100.00;76729.75;5053027;28;19913;-69
2022/10/04 11:17:25;;;;;;;;;;;;;;;-142.75;100.00;76676.59;5052655;28;19939;-69
2022/10/04 11:19:51;;;;;;;;;;;;;;;-142.75;100.00;76664.78;5052962;28;19913;-68
2022/10/04 11:22:22;;;;;;;;;;;;;;;-142.75;100.00;76733.69;5068318;28;19965;-68
2022/10/04 11:24:47;;;;;;;;;;;;;;;-142.75;100.00;76761.25;5052840;28;19920;-68
2022/10/04 11:27:28;;;;;;;;;;;;;;;-142.75;100.00;76727.78;5052469;28;19924;-69
2022/10/04 11:30:00;;;;;;;;;;;;;;;-142.75;100.00;76715.97;5052840;28;19913;-68
2022/10/04 11:32:45;;;;;;;;;;;;;;;-142.75;100.00;76680.53;5068155;28;19917;-67
2022/10/04 11:35:11;;;;;;;;;;;;;;;-142.75;100.00;76652.97;5052709;28;19913;-69
2022/10/04 11:37:47;;;;;;;;;;;;;;;-142.75;100.00;76719.91;5052375;28;19939;-69
2022/10/04 11:40:16;;;;;;;;;;;;;;;-142.75;100.00;76641.16;5052567;28;19920;-68
2022/10/04 11:42:44;;;;;;;;;;;;;;;-142.75;100.00;76633.28;5052571;28;19913;-69
2022/10/04 11:45:09;;;;;;;;;;;;;;;-142.75;100.00;76621.47;5052485;28;20294;-69
2022/10/04 11:47:40;;;;;;;;;;;;;;;-142.75;100.00;76664.78;5052246;28;19913;-68
2022/10/04 11:50:19;;;;;;;;;;;;;;;-142.75;100.00;76647.06;5067732;28;19912;-69
2022/10/04 11:53:02;;;;;;;;;;;;;;;-142.75;100.00;76645.09;5067785;28;19920;-69
2022/10/04 11:55:42;;;;;;;;;;;;;;;-142.75;100.00;76694.31;5052444;28;19913;-68
2022/10/04 11:58:22;;;;;;;;;;;;;;;-142.75;100.00;76702.19;5052099;28;19919;-68
2022/10/04 12:00:53;;;;;;;;;;;;;;;-142.75;100.00;76595.88;5052278;28;20406;-68
2022/10/04 12:03:18;;;;;;;;;;;;;;;-142.75;100.00;76593.91;5052209;28;19913;-68
2022/10/04 12:06:02;;;;;;;;;;;;;;;-142.75;100.00;76534.84;5052222;28;19955;-68
2022/10/04 12:08:47;;;;;;;;;;;;;;;-142.75;100.00;76436.44;5067360;28;19913;-69
2022/10/04 12:11:25;;;;;;;;;;;;;;;-142.75;100.00;76381.31;5052107;28;19920;-69
2022/10/04 12:14:23;;;;;;;;;;;;;;;-142.75;100.00;76318.34;5052223;28;19952;-68
2022/10/04 12:16:57;;;;;;;;;;;;;;;-142.75;100.00;76401.00;5052003;28;20402;-69
2022/10/04 12:19:36;;;;;;;;;;;;;;;-142.75;100.00;76310.47;5052040;28;20370;-69
2022/10/04 12:22:21;;;;;;;;;;;;;;;-142.75;100.00;76334.09;5067409;28;19913;-69
2022/10/04 12:24:56;;;;;;;;;;;;;;;-142.75;100.00;76334.09;5050809;28;19920;-69
2022/10/04 12:27:24;;;;;;;;;;;;;;;-142.75;100.00;76385.25;5068018;28;20394;-67
2022/10/04 12:30:08;;;;;;;;;;;;;;;-142.75;100.00;76395.09;5068247;28;19912;-68
2022/10/04 12:32:33;;;;;;;;;;;;;;;-142.75;100.00;76306.53;5068594;28;20577;-68
2022/10/04 12:35:11;;;;;;;;;;;;;;;-142.75;100.00;76294.72;5069835;28;19916;-68
2022/10/04 12:37:39;;;;;;;;;;;;;;;-142.75;100.00;76251.41;5068778;28;19995;-69
2022/10/04 12:40:22;;;;;;;;;;;;;;;-142.75;100.00;76263.22;5071310;28;20435;-69
2022/10/04 12:43:03;;;;;;;;;;;;;;;-142.75;98.26;76231.72;5069716;28;19913;-69
2022/10/04 12:45:37;;;;;;;;;;;;;;;-142.75;100.00;76294.72;5071851;28;19920;-69
2022/10/04 12:48:12;;;;;;;;;;;;;;;-142.75;100.00;76275.03;5071542;28;19916;-69
2022/10/04 12:50:40;;;;;;;;;;;;;;;-142.75;100.00;76284.88;5071866;28;19919;-69
2022/10/04 12:53:21;;;;;;;;;;;;;;;-142.75;100.00;76267.16;5071755;28;19913;-69